This is the latest recevied weather packets stored in our database for station/object 9M4GHZ-13. If no packets are shown the sender has not sent any weather packets the latest 10 day(s).
| Time | Temp. | Humidity | Pressure | Rain* | Wind** | Luminosity | Snow |
|---|---|---|---|---|---|---|---|
| 1777954804 | 32.78° C | 61% | 1007.6 hPa | - | - | - | - |
| 1777954205 | 32.22° C | 61% | 1007.8 hPa | - | - | - | - |
| 1777953605 | 31.67° C | 63% | 1008.1 hPa | - | - | - | - |
| 1777953004 | 31.67° C | 64% | 1008 hPa | - | - | - | - |
| 1777952405 | 30.56° C | 68% | 1008.1 hPa | - | - | - | - |
| 1777951805 | 31.67° C | 66% | 1008.4 hPa | - | - | - | - |
| 1777951205 | 31.11° C | 69% | 1008.6 hPa | - | - | - | - |
| 1777950606 | 31.11° C | 69% | 1008.7 hPa | - | - | - | - |
| 1777950005 | 31.11° C | 69% | 1008.9 hPa | - | - | - | - |
| 1777949404 | 30° C | 72% | 1009.1 hPa | - | - | - | - |
| 1777948804 | 29.44° C | 74% | 1009.4 hPa | - | - | - | - |
| 1777948204 | 30° C | 74% | 1009.4 hPa | - | - | - | - |
| 1777947604 | 29.44° C | 75% | 1009.8 hPa | - | - | - | - |
| 1777947003 | 29.44° C | 75% | 1009.9 hPa | - | - | - | - |
| 1777946404 | 28.89° C | 78% | 1010.1 hPa | - | - | - | - |
| 1777945803 | 28.89° C | 79% | 1010.1 hPa | - | - | - | - |
| 1777945205 | 28.33° C | 81% | 1010.2 hPa | - | - | - | - |
| 1777944606 | 28.33° C | 80% | 1010.3 hPa | - | - | - | - |
| 1777944004 | 28.33° C | 80% | 1010.2 hPa | - | - | - | - |
| 1777943404 | 27.78° C | 81% | 1010.4 hPa | - | - | - | - |
| 1777942805 | 27.78° C | 80% | 1010.5 hPa | - | - | - | - |
| 1777942204 | 27.22° C | 82% | 1010.3 hPa | - | - | - | - |
| 1777941605 | 26.67° C | 84% | 1010.5 hPa | - | - | - | - |
| 1777941005 | 26.67° C | 84% | 1010.6 hPa | - | - | - | - |
| 1777940405 | 26.67° C | 85% | 1010.5 hPa | - | - | - | - |
* Rain since midnight (hover to see other rain measurements)
** Current wind speed in m/s (hover to see current wind gust speed)